createdAt,value
2023-03-02T00:01:53.603Z,102190.00
2023-03-02T00:04:24.294Z,102191.22
2023-03-02T00:06:56.417Z,102185.19
2023-03-02T00:09:24.466Z,102187.09
2023-03-02T00:11:53.857Z,102185.38
2023-03-02T00:14:21.887Z,102188.03
2023-03-02T00:16:50.167Z,102193.66
2023-03-02T00:19:18.109Z,102182.38
2023-03-02T00:21:46.184Z,102188.06
2023-03-02T00:24:15.560Z,102173.34
2023-03-02T00:26:43.908Z,102178.09
2023-03-02T00:29:13.358Z,102175.84
2023-03-02T00:31:41.494Z,102167.13
2023-03-02T00:34:09.513Z,102169.22
2023-03-02T00:36:37.593Z,102160.59
2023-03-02T00:39:06.197Z,102147.59
2023-03-02T00:41:34.433Z,102153.28
2023-03-02T00:44:02.496Z,102159.88
2023-03-02T00:46:32.343Z,102152.97
2023-03-02T00:49:00.644Z,102159.25
2023-03-02T00:51:28.697Z,102155.63
2023-03-02T00:53:56.697Z,102161.78
2023-03-02T00:56:24.688Z,102154.53
2023-03-02T00:58:52.576Z,102161.47
2023-03-02T01:01:20.449Z,102164.91
2023-03-02T01:03:49.861Z,102157.69
2023-03-02T01:06:19.590Z,102159.38
2023-03-02T01:08:48.180Z,102154.84
2023-03-02T01:11:17.023Z,102162.66
2023-03-02T01:13:45.944Z,102159.03
2023-03-02T01:16:14.440Z,102157.25
2023-03-02T01:18:42.625Z,102165.94
2023-03-02T01:21:14.337Z,102155.09
2023-03-02T01:23:42.895Z,102154.94
2023-03-02T01:26:11.184Z,102145.84
2023-03-02T01:28:39.281Z,102143.09
2023-03-02T01:31:07.330Z,102145.75
2023-03-02T01:33:35.301Z,102143.03
2023-03-02T01:36:03.460Z,102135.06
2023-03-02T01:38:32.961Z,102130.69
2023-03-02T01:41:00.918Z,102137.84
2023-03-02T01:43:29.541Z,102132.59
2023-03-02T01:46:00.879Z,102138.69
2023-03-02T01:48:32.785Z,102124.47
2023-03-02T01:51:03.236Z,102126.28
2023-03-02T01:53:37.159Z,102130.78
2023-03-02T01:56:06.630Z,102126.28
2023-03-02T01:58:37.165Z,102131.66
2023-03-02T02:01:05.910Z,102131.66
2023-03-02T02:03:33.962Z,102124.59
2023-03-02T02:06:09.908Z,102122.88
2023-03-02T02:08:40.127Z,102118.38
2023-03-02T02:11:08.065Z,102131.66
2023-03-02T02:13:36.249Z,102124.59
2023-03-02T02:16:04.910Z,102126.28
2023-03-02T02:18:33.737Z,102106.75
2023-03-02T02:21:01.764Z,102112.94
2023-03-02T02:23:35.120Z,102104.91
2023-03-02T02:26:14.020Z,102109.50
2023-03-02T02:28:47.507Z,102110.44
2023-03-02T02:31:21.147Z,102096.31
2023-03-02T02:33:54.016Z,102103.38
2023-03-02T02:36:26.651Z,102096.31
2023-03-02T02:38:57.183Z,102087.34
2023-03-02T02:41:31.920Z,102097.06
2023-03-02T02:44:00.012Z,102093.53
2023-03-02T02:46:28.225Z,102096.16
2023-03-02T02:48:56.178Z,102104.16
2023-03-02T02:51:28.436Z,102101.50
2023-03-02T02:53:59.716Z,102094.41
2023-03-02T02:56:33.225Z,102090.81
2023-03-02T02:59:05.531Z,102095.19
2023-03-02T03:01:35.549Z,102094.41
2023-03-02T03:04:06.663Z,102088.13
2023-03-02T03:06:42.747Z,102091.66
2023-03-02T03:09:12.440Z,102095.25
2023-03-02T03:11:44.620Z,102091.72
2023-03-02T03:14:15.356Z,102098.03
2023-03-02T03:16:45.509Z,102092.00
2023-03-02T03:19:19.633Z,102085.78
2023-03-02T03:21:50.553Z,102084.94
2023-03-02T03:24:18.980Z,102079.59
2023-03-02T03:26:49.224Z,102082.38
2023-03-02T03:29:18.426Z,102074.50
2023-03-02T03:31:46.697Z,102079.84
2023-03-02T03:34:14.822Z,102073.75
2023-03-02T03:36:43.512Z,102072.03
2023-03-02T03:39:12.964Z,102077.38
2023-03-02T03:41:41.985Z,102079.25
2023-03-02T03:44:12.037Z,102078.41
2023-03-02T03:46:40.289Z,102072.38
2023-03-02T03:49:08.219Z,102079.47
2023-03-02T03:51:36.416Z,102083.16
2023-03-02T03:54:08.048Z,102079.75
2023-03-02T03:56:38.632Z,102077.19
2023-03-02T03:59:08.953Z,102075.63
2023-03-02T04:01:40.694Z,102080.28
2023-03-02T04:04:11.150Z,102088.38
2023-03-02T04:06:39.077Z,102081.31
2023-03-02T04:09:07.630Z,102070.78
2023-03-02T04:11:38.364Z,102085.97
2023-03-02T04:14:07.667Z,102074.59
2023-03-02T04:16:37.024Z,102073.06
2023-03-02T04:19:09.640Z,102073.06
2023-03-02T04:21:39.048Z,102076.66
2023-03-02T04:24:08.029Z,102077.69
2023-03-02T04:26:37.027Z,102067.03
2023-03-02T04:29:05.267Z,102077.69
2023-03-02T04:31:33.340Z,102084.00
2023-03-02T04:34:04.392Z,102078.72
2023-03-02T04:36:35.613Z,102076.16
2023-03-02T04:39:04.530Z,102077.84
2023-03-02T04:41:32.625Z,102081.47
2023-03-02T04:44:00.734Z,102076.03
2023-03-02T04:46:29.725Z,102083.19
2023-03-02T04:48:58.247Z,102072.53
2023-03-02T04:51:28.005Z,102079.56
2023-03-02T04:54:04.068Z,102079.56
2023-03-02T04:56:35.190Z,102077.69
2023-03-02T04:59:03.368Z,102080.28
2023-03-02T05:01:31.357Z,102081.94
2023-03-02T05:04:02.451Z,102081.94
2023-03-02T05:06:32.161Z,102082.84
2023-03-02T05:09:01.866Z,102089.09
2023-03-02T05:11:29.802Z,102086.47
2023-03-02T05:13:59.904Z,102088.28
2023-03-02T05:16:32.278Z,102091.91
2023-03-02T05:19:02.106Z,102097.16
2023-03-02T05:21:30.424Z,102098.88
2023-03-02T05:23:59.440Z,102092.59
2023-03-02T05:26:28.959Z,102093.53
2023-03-02T05:28:57.632Z,102095.34
2023-03-02T05:31:30.655Z,102095.53
2023-03-02T05:33:59.772Z,102100.94
2023-03-02T05:36:27.612Z,102104.41
2023-03-02T05:38:55.719Z,102096.47
2023-03-02T05:41:23.796Z,102101.03
2023-03-02T05:43:53.644Z,102108.19
2023-03-02T05:46:22.166Z,102101.13
2023-03-02T05:48:50.351Z,102102.75
2023-03-02T05:51:18.332Z,102102.84
2023-03-02T05:53:46.463Z,102102.84
2023-03-02T05:56:14.588Z,102101.81
2023-03-02T05:58:42.724Z,102099.22
2023-03-02T06:01:15.443Z,102097.66
2023-03-02T06:03:43.712Z,102095.94
2023-03-02T06:06:14.162Z,102098.00
2023-03-02T06:08:42.607Z,102097.16
2023-03-02T06:11:11.365Z,102095.69
2023-03-02T06:13:39.652Z,102099.19
2023-03-02T06:16:08.651Z,102102.72
2023-03-02T06:18:41.295Z,102104.44
2023-03-02T06:21:09.873Z,102101.72
2023-03-02T06:23:37.927Z,102108.69
2023-03-02T06:26:09.423Z,102105.91
2023-03-02T06:28:51.019Z,102105.75
2023-03-02T06:31:19.771Z,102114.63
2023-03-02T06:33:49.190Z,102117.28
2023-03-02T06:36:17.680Z,102113.75
2023-03-02T06:38:45.802Z,102117.28
2023-03-02T06:41:13.791Z,102118.16
2023-03-02T06:43:41.760Z,102118.25
2023-03-02T06:46:09.879Z,102116.44
2023-03-02T06:48:38.084Z,102108.44
2023-03-02T06:51:08.494Z,102122.56
2023-03-02T06:53:36.602Z,102127.81
2023-03-02T06:56:04.874Z,102121.63
2023-03-02T06:58:32.833Z,102129.53
2023-03-02T07:01:00.845Z,102125.03
2023-03-02T07:03:28.871Z,102125.91
2023-03-02T07:05:57.044Z,102129.38
2023-03-02T07:08:26.409Z,102130.22
2023-03-02T07:10:54.463Z,102121.28
2023-03-02T07:13:22.379Z,102125.56
2023-03-02T07:15:50.342Z,102125.50
2023-03-02T07:18:19.048Z,102124.44
2023-03-02T07:20:47.018Z,102133.31
2023-03-02T07:23:14.987Z,102137.63
2023-03-02T07:25:44.386Z,102134.03
2023-03-02T07:28:12.399Z,102132.16
2023-03-02T07:30:40.435Z,102139.19
2023-03-02T07:33:08.310Z,102139.91
2023-03-02T07:35:36.348Z,102139.72
2023-03-02T07:38:04.529Z,102136.94
2023-03-02T07:40:32.413Z,102139.47
2023-03-02T07:43:02.067Z,102140.25
2023-03-02T07:45:29.992Z,102146.38
2023-03-02T07:47:58.131Z,102148.97
2023-03-02T07:50:26.454Z,102141.75
2023-03-02T07:52:54.553Z,102139.84
2023-03-02T07:55:22.686Z,102140.59
2023-03-02T07:57:50.838Z,102145.69
2023-03-02T08:00:21.899Z,102149.03
2023-03-02T08:02:50.029Z,102150.50
2023-03-02T08:05:18.143Z,102156.53
2023-03-02T08:07:48.600Z,102157.25
2023-03-02T08:10:16.726Z,102158.69
2023-03-02T08:12:44.894Z,102151.44
2023-03-02T08:15:13.496Z,102159.03
2023-03-02T08:17:43.010Z,102165.13
2023-03-02T08:20:11.920Z,102152.47
2023-03-02T08:22:39.989Z,102165.56
2023-03-02T08:25:09.168Z,102158.13
2023-03-02T08:27:37.132Z,102166.84
2023-03-02T08:30:06.044Z,102161.41
2023-03-02T08:32:34.428Z,102161.03
2023-03-02T08:35:05.067Z,102162.59
2023-03-02T08:37:33.380Z,102167.75
2023-03-02T08:40:01.347Z,102170.06
2023-03-02T08:42:29.459Z,102165.47
2023-03-02T08:44:57.558Z,102175.31
2023-03-02T08:47:25.702Z,102171.72
2023-03-02T08:49:53.586Z,102170.06
2023-03-02T08:52:22.878Z,102172.91
2023-03-02T08:54:50.836Z,102180.75
2023-03-02T08:57:21.228Z,102181.34
2023-03-02T08:59:49.380Z,102184.63
2023-03-02T09:02:17.330Z,102181.50
2023-03-02T09:04:45.842Z,102182.16
2023-03-02T09:07:17.566Z,102183.69
2023-03-02T09:09:47.059Z,102189.34
2023-03-02T09:12:15.015Z,102196.84
2023-03-02T09:14:43.084Z,102190.34
2023-03-02T09:17:13.020Z,102190.84
2023-03-02T09:19:44.326Z,102193.06
2023-03-02T09:22:12.906Z,102197.00
2023-03-02T09:24:40.840Z,102197.47
2023-03-02T09:27:10.339Z,102201.78
2023-03-02T09:29:38.356Z,102197.28
2023-03-02T09:32:06.735Z,102196.22
2023-03-02T09:34:34.710Z,102204.09
2023-03-02T09:37:03.440Z,102199.88
2023-03-02T09:39:31.752Z,102201.13
2023-03-02T09:42:17.498Z,102193.53
2023-03-02T09:45:22.138Z,102205.28
2023-03-02T09:47:59.118Z,102203.28
2023-03-02T09:50:31.596Z,102193.41
2023-03-02T09:53:26.056Z,102188.34
2023-03-02T09:55:59.200Z,102195.63
2023-03-02T09:58:32.744Z,102196.59
2023-03-02T10:01:04.375Z,102198.03
2023-03-02T10:03:39.709Z,102196.19
2023-03-02T10:06:07.990Z,102194.28
2023-03-02T10:08:37.683Z,102199.44
2023-03-02T10:11:14.141Z,102201.28
2023-03-02T10:13:50.158Z,102200.41
2023-03-02T10:16:28.773Z,102187.19
2023-03-02T10:19:08.218Z,102200.88
2023-03-02T10:21:40.417Z,102197.47
2023-03-02T10:24:19.069Z,102204.84
2023-03-02T10:26:48.818Z,102203.09
2023-03-02T10:29:34.107Z,102202.78
2023-03-02T10:32:11.902Z,102195.72
2023-03-02T10:34:40.026Z,102198.13
2023-03-02T10:37:14.759Z,102205.50
2023-03-02T10:39:43.045Z,102199.66
2023-03-02T10:42:16.901Z,102195.53
2023-03-02T10:44:52.244Z,102203.69
2023-03-02T10:47:22.752Z,102215.72
2023-03-02T10:49:51.700Z,102208.44
2023-03-02T10:52:21.338Z,102205.53
2023-03-02T10:54:49.947Z,102220.31
2023-03-02T10:57:39.376Z,102217.63
2023-03-02T11:00:19.766Z,102215.72
2023-03-02T11:02:52.128Z,102208.91
2023-03-02T11:05:29.756Z,102218.72
2023-03-02T11:07:59.545Z,102218.25
2023-03-02T11:10:32.005Z,102214.91
2023-03-02T11:13:01.751Z,102214.06
2023-03-02T11:15:41.804Z,102217.59
2023-03-02T11:18:27.571Z,102208.41
2023-03-02T11:21:00.073Z,102214.50
2023-03-02T11:23:36.537Z,102223.66
2023-03-02T11:26:11.387Z,102228.72
2023-03-02T11:28:48.524Z,102222.56
2023-03-02T11:31:27.577Z,102218.63
2023-03-02T11:34:16.759Z,102221.34
2023-03-02T11:36:58.058Z,102224.34
2023-03-02T11:39:33.401Z,102217.78
2023-03-02T11:42:01.354Z,102219.50
2023-03-02T11:44:29.923Z,102222.53
2023-03-02T11:47:02.386Z,102219.53
2023-03-02T11:49:39.346Z,102218.75
2023-03-02T11:52:17.316Z,102222.06
2023-03-02T11:54:48.720Z,102219.44
2023-03-02T11:57:24.474Z,102222.00
2023-03-02T11:59:54.544Z,102222.22
2023-03-02T12:02:24.421Z,102221.16
2023-03-02T12:05:03.661Z,102224.69
2023-03-02T12:07:32.012Z,102210.72
2023-03-02T12:10:02.896Z,102213.00
2023-03-02T12:12:42.463Z,102221.19
2023-03-02T12:15:37.304Z,102219.81
2023-03-02T12:18:29.649Z,102218.31
2023-03-02T12:21:03.905Z,102208.63
2023-03-02T12:23:33.794Z,102205.72
2023-03-02T12:26:09.350Z,102204.63
2023-03-02T12:28:39.319Z,102204.81
2023-03-02T12:31:11.264Z,102213.34
2023-03-02T12:33:47.509Z,102205.22
2023-03-02T12:36:19.727Z,102204.19
2023-03-02T12:39:02.579Z,102206.03
2023-03-02T12:41:47.980Z,102205.31
2023-03-02T12:44:31.766Z,102204.44
2023-03-02T12:47:02.301Z,102207.00
2023-03-02T12:49:47.446Z,102206.88
2023-03-02T12:52:27.513Z,102198.28
2023-03-02T12:55:03.512Z,102201.06
2023-03-02T12:57:32.113Z,102206.75
2023-03-02T13:00:02.452Z,102207.81
2023-03-02T13:02:32.129Z,102195.47
2023-03-02T13:05:03.546Z,102198.47
2023-03-02T13:07:37.843Z,102192.25
2023-03-02T13:10:17.827Z,102192.63
2023-03-02T13:12:47.385Z,102195.50
2023-03-02T13:15:17.979Z,102190.31
2023-03-02T13:17:53.644Z,102186.22
2023-03-02T13:20:24.782Z,102182.31
2023-03-02T13:22:53.377Z,102190.38
2023-03-02T13:25:25.893Z,102183.41
2023-03-02T13:27:55.923Z,102187.69
2023-03-02T13:30:27.581Z,102180.97
2023-03-02T13:33:01.834Z,102178.19
2023-03-02T13:35:33.873Z,102173.56
2023-03-02T13:38:04.604Z,102162.09
2023-03-02T13:40:52.113Z,102157.59
2023-03-02T13:43:37.244Z,102155.75
2023-03-02T13:46:08.306Z,102153.19
2023-03-02T13:48:36.227Z,102151.25
2023-03-02T13:51:16.943Z,102147.41
2023-03-02T13:53:51.905Z,102141.84
2023-03-02T13:56:20.529Z,102149.63
2023-03-02T13:58:48.617Z,102149.31
2023-03-02T14:01:16.565Z,102150.72
2023-03-02T14:03:44.665Z,102144.63
2023-03-02T14:06:14.169Z,102146.13
2023-03-02T14:08:42.135Z,102150.88
2023-03-02T14:11:13.091Z,102151.19
2023-03-02T14:13:43.834Z,102155.50
2023-03-02T14:16:13.935Z,102138.53
2023-03-02T14:18:43.929Z,102149.69
2023-03-02T14:21:19.107Z,102139.16
2023-03-02T14:23:48.345Z,102141.41
2023-03-02T14:26:28.432Z,102143.88
2023-03-02T14:29:05.465Z,102139.59
2023-03-02T14:31:34.664Z,102130.41
2023-03-02T14:34:02.854Z,102140.75
2023-03-02T14:36:34.958Z,102150.66
2023-03-02T14:39:06.111Z,102140.38
2023-03-02T14:41:43.949Z,102136.66
2023-03-02T14:44:19.429Z,102140.44
2023-03-02T14:46:47.780Z,102135.34
2023-03-02T14:49:15.877Z,102133.91
2023-03-02T14:51:50.485Z,102137.00
2023-03-02T14:54:21.177Z,102121.28
2023-03-02T14:56:50.598Z,102133.06
2023-03-02T14:59:18.832Z,102134.50
2023-03-02T15:01:46.998Z,102119.91
2023-03-02T15:04:14.962Z,102124.94
2023-03-02T15:06:45.356Z,102124.59
2023-03-02T15:09:13.727Z,102117.50
2023-03-02T15:11:41.860Z,102122.59
2023-03-02T15:14:09.862Z,102130.06
2023-03-02T15:16:37.990Z,102120.81
2023-03-02T15:19:06.363Z,102120.66
2023-03-02T15:21:34.948Z,102119.56
2023-03-02T15:24:05.205Z,102115.81
2023-03-02T15:26:33.503Z,102114.72
2023-03-02T15:29:02.285Z,102112.38
2023-03-02T15:31:30.591Z,102104.38
2023-03-02T15:33:58.781Z,102112.94
2023-03-02T15:36:27.012Z,102110.09
2023-03-02T15:38:55.181Z,102108.25
2023-03-02T15:41:24.620Z,102109.03
2023-03-02T15:43:53.323Z,102108.84
2023-03-02T15:46:22.310Z,102104.75
2023-03-02T15:48:52.042Z,102105.38
2023-03-02T15:51:20.764Z,102112.63
2023-03-02T15:53:49.122Z,102109.50
2023-03-02T15:56:17.930Z,102117.63
2023-03-02T15:58:51.450Z,102118.13
2023-03-02T16:01:19.413Z,102112.66
2023-03-02T16:03:47.487Z,102110.22
2023-03-02T16:06:16.061Z,102109.47
2023-03-02T16:08:44.061Z,102111.19
2023-03-02T16:11:15.479Z,102122.44
2023-03-02T16:13:44.907Z,102116.56
2023-03-02T16:16:14.471Z,102118.25
2023-03-02T16:18:42.500Z,102115.81
2023-03-02T16:21:14.017Z,102112.50
2023-03-02T16:23:42.646Z,102107.97
2023-03-02T16:26:12.096Z,102114.63
2023-03-02T16:28:40.164Z,102117.09
2023-03-02T16:31:10.528Z,102105.22
2023-03-02T16:33:40.482Z,102110.94
2023-03-02T16:36:10.400Z,102119.91
2023-03-02T16:38:38.704Z,102107.03
2023-03-02T16:41:14.182Z,102111.19
2023-03-02T16:43:45.938Z,102112.81
2023-03-02T16:46:14.288Z,102120.03
2023-03-02T16:48:45.051Z,102120.13
2023-03-02T16:51:13.783Z,102118.09
2023-03-02T16:53:42.595Z,102118.09
2023-03-02T16:56:12.193Z,102122.09
2023-03-02T16:58:41.409Z,102116.09
2023-03-02T17:01:11.692Z,102121.66
2023-03-02T17:03:39.934Z,102119.25
2023-03-02T17:06:13.785Z,102121.59
2023-03-02T17:08:42.563Z,102127.59
2023-03-02T17:11:10.779Z,102126.56
2023-03-02T17:13:39.710Z,102130.66
2023-03-02T17:16:08.030Z,102132.25
2023-03-02T17:18:36.107Z,102141.44
2023-03-02T17:21:06.160Z,102132.41
2023-03-02T17:23:37.107Z,102124.88
2023-03-02T17:26:05.471Z,102128.78
2023-03-02T17:28:33.477Z,102123.97
2023-03-02T17:31:03.492Z,102129.22
2023-03-02T17:33:34.050Z,102135.94
2023-03-02T17:36:06.293Z,102142.22
2023-03-02T17:38:35.762Z,102144.66
2023-03-02T17:41:05.198Z,102150.88
2023-03-02T17:43:34.129Z,102142.47
2023-03-02T17:46:14.405Z,102151.41
2023-03-02T17:48:43.740Z,102162.13
2023-03-02T17:51:14.914Z,102168.03
2023-03-02T17:53:44.330Z,102161.34
2023-03-02T17:56:13.433Z,102165.59
2023-03-02T17:58:45.342Z,102174.94
2023-03-02T18:01:15.837Z,102179.78
2023-03-02T18:03:45.113Z,102170.84
2023-03-02T18:06:13.426Z,102190.13
2023-03-02T18:08:41.573Z,102194.06
2023-03-02T18:11:11.767Z,102192.00
2023-03-02T18:13:40.286Z,102195.13
2023-03-02T18:16:08.613Z,102194.16
2023-03-02T18:18:36.617Z,102203.59
2023-03-02T18:21:04.853Z,102215.47
2023-03-02T18:23:33.315Z,102209.19
2023-03-02T18:26:01.294Z,102205.38
2023-03-02T18:28:30.758Z,102218.38
2023-03-02T18:30:58.753Z,102218.75
2023-03-02T18:33:26.702Z,102222.66
2023-03-02T18:35:54.767Z,102228.19
2023-03-02T18:38:22.883Z,102235.47
2023-03-02T18:40:50.846Z,102229.28
2023-03-02T18:43:18.914Z,102235.59
2023-03-02T18:45:48.402Z,102233.13
2023-03-02T18:48:16.500Z,102234.63
2023-03-02T18:50:44.872Z,102237.13
2023-03-02T18:53:13.042Z,102238.59
2023-03-02T18:55:41.907Z,102247.22
2023-03-02T18:58:14.727Z,102245.25
2023-03-02T19:00:43.732Z,102252.97
2023-03-02T19:03:13.755Z,102261.66
2023-03-02T19:05:42.482Z,102257.72
2023-03-02T19:08:11.317Z,102245.13
2023-03-02T19:10:42.486Z,102253.72
2023-03-02T19:13:15.654Z,102258.59
2023-03-02T19:15:44.609Z,102257.94
2023-03-02T19:18:16.642Z,102261.59
2023-03-02T19:20:47.222Z,102267.47
2023-03-02T19:23:16.014Z,102273.91
2023-03-02T19:25:47.278Z,102272.47
2023-03-02T19:28:16.178Z,102268.34
2023-03-02T19:30:44.367Z,102280.19
2023-03-02T19:33:14.282Z,102288.50
2023-03-02T19:35:43.212Z,102274.88
2023-03-02T19:38:12.755Z,102282.22
2023-03-02T19:40:40.836Z,102285.34
2023-03-02T19:43:09.177Z,102301.56
2023-03-02T19:45:38.424Z,102291.31
2023-03-02T19:48:07.464Z,102290.63
2023-03-02T19:50:37.084Z,102294.47
2023-03-02T19:53:05.167Z,102281.31
2023-03-02T19:55:34.345Z,102300.09
2023-03-02T19:58:02.619Z,102304.53
2023-03-02T20:00:32.825Z,102304.72
2023-03-02T20:03:01.972Z,102301.31
2023-03-02T20:05:30.135Z,102305.91
2023-03-02T20:08:00.173Z,102300.09
2023-03-02T20:10:31.611Z,102299.34
2023-03-02T20:13:01.114Z,102292.50
2023-03-02T20:15:30.419Z,102298.81
2023-03-02T20:18:02.746Z,102291.13
2023-03-02T20:20:32.192Z,102302.75
2023-03-02T20:23:02.397Z,102307.22
2023-03-02T20:25:30.430Z,102302.09
2023-03-02T20:27:59.800Z,102312.00
2023-03-02T20:30:33.615Z,102311.56
2023-03-02T20:33:03.152Z,102311.72
2023-03-02T20:35:33.739Z,102307.50
2023-03-02T20:38:08.227Z,102310.28
2023-03-02T20:40:40.521Z,102305.81
2023-03-02T20:43:08.790Z,102305.81
2023-03-02T20:45:44.271Z,102307.69
2023-03-02T20:48:13.377Z,102317.59
2023-03-02T20:50:43.399Z,102319.56
2023-03-02T20:53:15.952Z,102313.78
2023-03-02T20:55:45.027Z,102322.84
2023-03-02T20:58:14.729Z,102333.69
2023-03-02T21:00:44.267Z,102325.19
2023-03-02T21:03:13.432Z,102325.34
2023-03-02T21:05:44.369Z,102330.84
2023-03-02T21:08:15.486Z,102324.94
2023-03-02T21:10:45.205Z,102320.63
2023-03-02T21:13:13.654Z,102322.44
2023-03-02T21:24:06.585Z,102329.97
2023-03-02T21:26:35.040Z,102330.13
2023-03-02T21:29:06.653Z,102325.03
2023-03-02T21:31:50.632Z,102319.94
2023-03-02T21:34:23.166Z,102327.88
2023-03-02T21:37:10.373Z,102324.53
2023-03-02T21:39:44.808Z,102328.13
2023-03-02T21:42:15.137Z,102327.34
2023-03-02T21:44:49.254Z,102333.69
2023-03-02T21:47:21.724Z,102338.00
2023-03-02T21:49:53.007Z,102346.91
2023-03-02T21:52:21.169Z,102339.88
2023-03-02T21:54:51.122Z,102339.97
2023-03-02T21:57:19.479Z,102338.13
2023-03-02T21:59:47.725Z,102336.41
2023-03-02T22:02:15.908Z,102335.50
2023-03-02T22:04:43.976Z,102343.44
2023-03-02T22:07:12.451Z,102333.75
2023-03-02T22:09:40.446Z,102339.06
2023-03-02T22:12:13.925Z,102340.78
2023-03-02T22:14:42.311Z,102341.72
2023-03-02T22:17:17.778Z,102337.34
2023-03-02T22:19:46.428Z,102338.19
2023-03-02T22:22:19.496Z,102341.72
2023-03-02T22:24:50.071Z,102339.06
2023-03-02T22:27:24.402Z,102335.63
2023-03-02T22:29:54.698Z,102339.19
2023-03-02T22:32:24.423Z,102326.94
2023-03-02T22:34:53.953Z,102327.75
2023-03-02T22:37:23.642Z,102326.75
2023-03-02T22:39:56.157Z,102337.19
2023-03-02T22:42:27.037Z,102340.59
2023-03-02T22:45:02.921Z,102328.97
2023-03-02T22:47:30.956Z,102339.34
2023-03-02T22:50:01.763Z,102335.72
2023-03-02T22:52:43.147Z,102344.53
2023-03-02T22:55:35.479Z,102341.88
2023-03-02T22:58:30.013Z,102335.00
2023-03-02T23:00:58.729Z,102343.81
2023-03-02T23:03:37.349Z,102346.53
2023-03-02T23:06:26.930Z,102344.78
2023-03-02T23:08:56.588Z,102344.88
2023-03-02T23:11:25.708Z,102344.00
2023-03-02T23:13:55.828Z,102346.72
2023-03-02T23:16:26.716Z,102357.41
2023-03-02T23:18:59.228Z,102355.75
2023-03-02T23:21:32.105Z,102356.88
2023-03-02T23:24:01.514Z,102352.66
2023-03-02T23:26:29.466Z,102360.81
2023-03-02T23:28:58.880Z,102358.34
2023-03-02T23:31:27.347Z,102361.13
2023-03-02T23:33:55.317Z,102356.78
2023-03-02T23:36:23.409Z,102355.97
2023-03-02T23:38:51.824Z,102361.22
2023-03-02T23:41:19.869Z,102368.41
2023-03-02T23:43:48.198Z,102363.19
2023-03-02T23:46:17.837Z,102361.50
2023-03-02T23:48:46.133Z,102367.59
2023-03-02T23:51:14.059Z,102362.38
2023-03-02T23:53:42.032Z,102363.38
2023-03-02T23:56:10.140Z,102355.50
2023-03-02T23:58:38.356Z,102361.59
